Airfield :
LOGIN :

Register | Disclaimer

   EN    FR    IT 

 










Legend :    VFR   Marginal VFR   IFR   Intensive IFR   Very Intensive IFR
Visi :
Ceiling :
>= 8 km
>= 3000ft
5 to 8 km
1000 to 3000 ft
1500m to 5 km
500 to 1000 ft
800 to 1500m
200 to 500 ft
< 800m
< 200 ft
Symbols :   Thunderstorms  Fog  Heavy snow  Heavy precipitations  Wind > 20 kt
SIGMETs :     Misc.  Thunderstorms  Icing  Turbulence  Mountain Waves  Volcanic Ashes






- Airport Elevation : 1247 ft
- IATA code : PRG


LKPR - Praha Ruzyne

CURRENT METAR :
  • 041400Z 08009KT 6000 BKN009 OVC014 05/04 Q1015 NOSIG

EXPIRED METARs :
  • 041330Z 10010KT 080V140 6000 BKN009 OVC012 05/04 Q1015 NOSIG
  • 041300Z 10009KT 6000 BKN008 OVC011 05/04 Q1015 NOSIG
  • 041230Z 09008KT 6000 BKN008 OVC011 05/04 Q1015 NOSIG
  • 041200Z 09009KT 5000 BR BKN007 OVC011 05/04 Q1016 NOSIG
  • 041130Z 10010KT 4500 BR BKN007 OVC011 05/04 Q1016 NOSIG

TAF TAF LKPR
Valid from the 04 at 12:00 until the 05 at 18:00 UTC


041100Z 0412/0518 08006KT 6000 BKN008
TEMPO 0412/0414 4000 BR
BECMG 0422/0500 4000 BR OVC005
TEMPO 0500/0508 2500 BR OVC003
TEMPO 0510/0515 7000 BKN009
TEMPO 0516/0518 2500 RASN BR BKN002
BECMG 0516/0518 20010KT



MET'MAP, your aeronautical weather chart ! - Copyright ORBIFLY December 2007 - Disclaimer

ORBIFLY MET'MAP TEAM :

Programming & Development : Alexandra Zaïnal
Original concept : Baudouin d'Aumeries
Technical & hardware support : Manuel Goepfert
Assistance : Marc-Olivier Méhu




SOURCES & CREDITS :

   NOAA